Terminal Aerodrome Forecast
Issued by NWS

Home | Current Version | Previous Version | Text Only | Print | Product List | Glossary On
Versions: 1 2 3 4 5 6 7 8 9 10 11 12 13 14 15 16 17 18 19 20 21 22 23
000
FTUS45 KRIW 071123
TAFPNA
TAF
KPNA 071123Z 0712/0812 29005KT P6SM VCFG OVC100
     FM071500 VRB05KT P6SM SCT030 BKN100
     FM072000 VRB10G20KT P6SM VCTS BKN080CB
     FM080300 VRB06KT P6SM VCSH BKN050
     FM080600 35006KT P6SM SCT050 BKN100
      AMD LTD TO CLD VIS AND WIND=

USA.gov is the U.S. government's official web portal to all federal, state and local government web resources and services.